Time,TemperatureF,DewpointF,PressureIn,WindDirection,WindDirectionDegrees,WindSpeedMPH,WindSpeedGustMPH,Humidity,HourlyPrecipIn,Conditions,Clouds,dailyrainin,SoftwareType,DateUTC
2013-10-23 00:03:00,38.7,37.4,29.95,East,90,0.0,0.0,95,0.01,-RA,,0.01,WeatherDisplay:10.37,2013-10-23 06:03:00,
2013-10-23 00:08:00,38.7,37.4,29.95,ESE,112,0.0,1.1,95,0.01,-RA,,0.01,WeatherDisplay:10.37,2013-10-23 06:08:00,
2013-10-23 00:13:00,38.8,37.5,29.95,NNE,22,0.0,0.0,95,0.01,OVC,,0.01,WeatherDisplay:10.37,2013-10-23 06:13:00,
2013-10-23 00:18:00,38.8,37.5,29.95,ESE,112,0.0,0.0,95,0.01,OVC,,0.01,WeatherDisplay:10.37,2013-10-23 06:18:00,
2013-10-23 00:23:00,38.8,37.5,29.95,SSW,202,0.0,0.0,95,0.01,OVC,,0.01,WeatherDisplay:10.37,2013-10-23 06:23:00,
2013-10-23 00:28:00,38.8,37.5,29.95,SSW,202,0.0,0.0,95,0.01,OVC,,0.01,WeatherDisplay:10.37,2013-10-23 06:28:00,
2013-10-23 00:33:00,38.7,37.4,29.95,WNW,292,0.0,0.0,95,0.01,OVC,,0.01,WeatherDisplay:10.37,2013-10-23 06:33:00,
2013-10-23 00:38:00,38.7,37.4,29.95,West,270,0.0,0.0,95,0.01,OVC,,0.01,WeatherDisplay:10.37,2013-10-23 06:38:00,
2013-10-23 00:43:00,39.0,38.0,29.95,SSW,202,0.0,0.0,96,0.01,OVC,,0.01,WeatherDisplay:10.37,2013-10-23 06:43:00,
2013-10-23 00:48:00,38.8,37.8,29.95,SW,225,0.0,1.1,96,0.01,OVC,,0.01,WeatherDisplay:10.37,2013-10-23 06:48:00,
2013-10-23 00:53:00,38.8,37.8,29.95,SE,135,0.0,0.0,96,0.01,OVC,,0.01,WeatherDisplay:10.37,2013-10-23 06:53:00,
2013-10-23 00:58:00,38.8,37.8,29.95,SW,225,0.0,0.0,96,0.01,OVC,,0.01,WeatherDisplay:10.37,2013-10-23 06:58:00,
2013-10-23 01:03:00,39.0,38.0,29.95,NW,315,0.0,0.0,96,0.00,OVC,,0.01,WeatherDisplay:10.37,2013-10-23 07:03:00,
2013-10-23 01:08:00,39.0,38.0,29.95,SSW,202,0.0,0.0,96,0.00,OVC,,0.01,WeatherDisplay:10.37,2013-10-23 07:08:00,
2013-10-23 01:13:00,39.0,38.0,29.95,SW,225,0.0,0.0,96,0.00,OVC,,0.01,WeatherDisplay:10.37,2013-10-23 07:13:00,
2013-10-23 01:18:00,39.0,38.0,29.95,West,270,0.0,0.0,96,0.00,OVC,,0.01,WeatherDisplay:10.37,2013-10-23 07:18:00,
2013-10-23 01:23:00,39.0,38.0,29.95,SW,225,2.0,2.3,96,0.00,OVC,,0.01,WeatherDisplay:10.37,2013-10-23 07:23:00,
2013-10-23 01:28:00,39.0,37.7,29.95,SW,225,0.0,1.1,95,0.00,OVC,,0.01,WeatherDisplay:10.37,2013-10-23 07:28:00,
2013-10-23 01:34:00,39.0,37.7,29.95,SW,225,0.0,0.0,95,0.00,OVC,,0.01,WeatherDisplay:10.37,2013-10-23 07:34:00,
2013-10-23 01:39:00,39.0,37.7,29.95,WSW,248,0.0,0.0,95,0.00,OVC,,0.01,WeatherDisplay:10.37,2013-10-23 07:39:00,
2013-10-23 01:44:00,39.0,37.7,29.95,SW,225,2.7,3.5,95,0.00,OVC,,0.01,WeatherDisplay:10.37,2013-10-23 07:44:00,
2013-10-23 01:49:00,39.0,37.7,29.95,WNW,292,0.0,0.0,95,0.00,OVC,,0.01,WeatherDisplay:10.37,2013-10-23 07:49:00,
2013-10-23 01:54:00,39.0,37.7,29.95,WSW,248,0.0,1.1,95,0.00,OVC,,0.01,WeatherDisplay:10.37,2013-10-23 07:54:00,
2013-10-23 01:59:00,39.0,37.7,29.95,SW,225,2.6,3.2,95,0.00,OVC,,0.01,WeatherDisplay:10.37,2013-10-23 07:59:00,
2013-10-23 02:04:00,39.0,37.7,29.95,WSW,248,3.1,3.5,95,0.00,OVC,,0.01,WeatherDisplay:10.37,2013-10-23 08:04:00,
2013-10-23 02:09:00,39.0,37.7,29.95,WSW,248,1.5,2.2,95,0.00,OVC,,0.01,WeatherDisplay:10.37,2013-10-23 08:09:00,
2013-10-23 02:14:00,39.0,37.7,29.95,West,270,0.0,1.1,95,0.00,OVC,,0.01,WeatherDisplay:10.37,2013-10-23 08:14:00,
2013-10-23 02:19:00,39.0,37.7,29.95,West,270,0.0,0.0,95,0.00,OVC,,0.01,WeatherDisplay:10.37,2013-10-23 08:19:00,
2013-10-23 02:24:00,39.0,37.7,29.95,WNW,292,0.0,0.0,95,0.00,OVC,,0.01,WeatherDisplay:10.37,2013-10-23 08:24:00,
2013-10-23 02:29:00,39.2,37.9,29.95,WSW,248,0.0,0.0,95,0.00,OVC,,0.01,WeatherDisplay:10.37,2013-10-23 08:29:00,
2013-10-23 02:34:00,39.2,37.9,29.95,WSW,248,0.0,0.0,95,0.00,OVC,,0.01,WeatherDisplay:10.37,2013-10-23 08:34:00,
2013-10-23 02:39:00,39.2,37.9,29.94,SSW,202,0.0,0.0,95,0.00,OVC,,0.01,WeatherDisplay:10.37,2013-10-23 08:39:00,
2013-10-23 02:44:00,39.2,37.9,29.94,SW,225,0.0,0.0,95,0.00,OVC,,0.01,WeatherDisplay:10.37,2013-10-23 08:44:00,
2013-10-23 02:49:00,39.2,37.9,29.94,SW,225,0.0,1.1,95,0.00,OVC,,0.01,WeatherDisplay:10.37,2013-10-23 08:49:00,
2013-10-23 02:54:00,39.0,37.7,29.94,West,270,0.0,0.0,95,0.00,OVC,,0.01,WeatherDisplay:10.37,2013-10-23 08:54:00,
2013-10-23 02:59:00,39.0,37.7,29.94,NW,315,0.1,1.1,95,0.00,OVC,,0.01,WeatherDisplay:10.37,2013-10-23 08:59:00,
2013-10-23 03:04:00,38.8,37.5,29.95,WSW,248,0.0,0.0,95,0.00,OVC,,0.01,WeatherDisplay:10.37,2013-10-23 09:04:00,
2013-10-23 03:09:00,38.8,37.5,29.95,NW,315,0.0,0.0,95,0.00,OVC,,0.01,WeatherDisplay:10.37,2013-10-23 09:09:00,
2013-10-23 03:14:00,38.8,37.5,29.95,South,180,0.0,0.0,95,0.00,OVC,,0.01,WeatherDisplay:10.37,2013-10-23 09:14:00,
2013-10-23 03:19:00,38.8,37.5,29.94,SW,225,0.0,0.0,95,0.00,OVC,,0.01,WeatherDisplay:10.37,2013-10-23 09:19:00,
2013-10-23 03:24:00,38.8,37.5,29.94,North,360,0.0,0.0,95,0.00,OVC,,0.01,WeatherDisplay:10.37,2013-10-23 09:24:00,
2013-10-23 03:29:00,38.7,37.4,29.95,NW,315,0.0,0.0,95,0.00,OVC,,0.01,WeatherDisplay:10.37,2013-10-23 09:29:00,
2013-10-23 03:34:00,38.8,37.5,29.95,SW,225,0.0,0.0,95,0.00,OVC,,0.01,WeatherDisplay:10.37,2013-10-23 09:34:00,
2013-10-23 03:39:00,38.8,37.5,29.95,SW,225,1.0,2.3,95,0.00,OVC,,0.01,WeatherDisplay:10.37,2013-10-23 09:39:00,
2013-10-23 03:44:00,38.8,37.5,29.95,SW,225,0.0,0.0,95,0.00,OVC,,0.01,WeatherDisplay:10.37,2013-10-23 09:44:00,
2013-10-23 03:49:00,38.8,37.5,29.95,WSW,248,0.0,0.0,95,0.00,OVC,,0.01,WeatherDisplay:10.37,2013-10-23 09:49:00,
2013-10-23 03:54:00,39.0,38.0,29.96,West,270,0.0,0.0,96,0.00,OVC,,0.01,WeatherDisplay:10.37,2013-10-23 09:54:00,
2013-10-23 03:59:00,39.2,38.2,29.96,SW,225,0.0,0.0,96,0.00,OVC,,0.01,WeatherDisplay:10.37,2013-10-23 09:59:00,
2013-10-23 04:04:00,39.2,38.2,29.96,NW,315,0.0,0.0,96,0.00,OVC,,0.01,WeatherDisplay:10.37,2013-10-23 10:04:00,
2013-10-23 04:09:00,39.2,38.2,29.96,NE,45,0.0,1.1,96,0.00,OVC,,0.01,WeatherDisplay:10.37,2013-10-23 10:09:00,
2013-10-23 04:14:00,39.4,38.1,29.96,West,270,0.0,1.1,95,0.00,OVC,,0.01,WeatherDisplay:10.37,2013-10-23 10:14:00,
2013-10-23 04:19:00,39.4,38.1,29.97,SW,225,2.7,2.7,95,0.00,OVC,,0.01,WeatherDisplay:10.37,2013-10-23 10:19:00,
2013-10-23 04:24:00,39.6,38.3,29.97,WSW,248,0.0,1.1,95,0.00,OVC,,0.01,WeatherDisplay:10.37,2013-10-23 10:24:00,
2013-10-23 04:29:00,39.6,38.3,29.96,SW,225,0.4,1.1,95,0.00,OVC,,0.01,WeatherDisplay:10.37,2013-10-23 10:29:00,
2013-10-23 04:34:00,39.7,38.1,29.96,West,270,0.0,0.0,94,0.00,OVC,,0.01,WeatherDisplay:10.37,2013-10-23 10:34:00,
2013-10-23 04:39:00,39.7,38.1,29.97,West,270,0.7,1.1,94,0.00,OVC,,0.01,WeatherDisplay:10.37,2013-10-23 10:39:00,
2013-10-23 04:44:00,39.7,38.1,29.97,WSW,248,0.0,0.0,94,0.00,OVC,,0.01,WeatherDisplay:10.37,2013-10-23 10:44:00,
2013-10-23 04:49:00,39.9,38.3,29.97,NW,315,0.0,0.0,94,0.00,OVC,,0.01,WeatherDisplay:10.37,2013-10-23 10:49:00,
2013-10-23 04:54:00,39.9,38.3,29.97,WSW,248,0.0,0.0,94,0.00,OVC,,0.01,WeatherDisplay:10.37,2013-10-23 10:54:00,
2013-10-23 04:59:00,40.1,38.5,29.97,SW,225,0.0,0.0,94,0.00,OVC,,0.01,WeatherDisplay:10.37,2013-10-23 10:59:00,
2013-10-23 05:04:00,40.1,38.5,29.97,NW,315,1.6,4.2,94,0.00,OVC,,0.01,WeatherDisplay:10.37,2013-10-23 11:04:00,
2013-10-23 05:09:00,40.1,38.5,29.97,West,270,4.1,4.7,94,0.00,OVC,,0.01,WeatherDisplay:10.37,2013-10-23 11:09:00,
2013-10-23 05:14:00,40.3,38.7,29.97,NNW,338,2.4,4.2,94,0.00,OVC,,0.01,WeatherDisplay:10.37,2013-10-23 11:14:00,
2013-10-23 05:19:00,40.5,38.9,29.98,NW,315,2.9,4.6,94,0.00,OVC,,0.01,WeatherDisplay:10.37,2013-10-23 11:19:00,
2013-10-23 05:24:00,40.5,38.9,29.98,West,270,3.6,4.6,94,0.00,-RA,,0.01,WeatherDisplay:10.37,2013-10-23 11:24:00,
2013-10-23 05:29:00,40.8,39.2,29.98,NW,315,3.0,4.2,94,0.00,-RA,,0.01,WeatherDisplay:10.37,2013-10-23 11:29:00,
2013-10-23 05:34:00,41.0,39.4,29.98,WNW,292,4.0,5.8,94,0.00,-RA,,0.01,WeatherDisplay:10.37,2013-10-23 11:34:00,
2013-10-23 05:39:00,41.0,39.4,29.99,NNE,22,4.3,5.8,94,0.00,-RA,,0.01,WeatherDisplay:10.37,2013-10-23 11:39:00,
2013-10-23 05:44:00,39.9,38.0,29.99,ESE,112,5.5,6.3,93,0.00,-RA,,0.01,WeatherDisplay:10.37,2013-10-23 11:44:00,
2013-10-23 05:49:00,39.4,37.5,29.99,East,90,3.8,4.6,93,0.00,-RA,,0.01,WeatherDisplay:10.37,2013-10-23 11:49:00,
2013-10-23 05:54:00,38.8,36.9,30.00,NE,45,3.5,3.7,93,0.00,-RA,,0.01,WeatherDisplay:10.37,2013-10-23 11:54:00,
2013-10-23 05:59:00,38.7,36.9,30.00,NE,45,3.3,3.5,93,0.00,-RA,,0.01,WeatherDisplay:10.37,2013-10-23 11:59:00,
2013-10-23 06:04:00,38.5,36.7,30.00,ENE,68,1.7,2.3,93,0.00,OVC,,0.01,WeatherDisplay:10.37,2013-10-23 12:04:00,
2013-10-23 06:09:00,38.5,36.9,30.00,NE,45,2.4,4.2,94,0.00,OVC,,0.01,WeatherDisplay:10.37,2013-10-23 12:09:00,
2013-10-23 06:14:00,38.3,36.7,30.01,NE,45,2.8,3.7,94,0.00,OVC,,0.01,WeatherDisplay:10.37,2013-10-23 12:14:00,
2013-10-23 06:19:00,38.3,36.7,30.01,NE,45,2.2,2.3,94,0.00,OVC,,0.01,WeatherDisplay:10.37,2013-10-23 12:19:00,
2013-10-23 06:24:00,38.3,36.7,30.01,NE,45,3.3,4.6,94,0.00,OVC,,0.01,WeatherDisplay:10.37,2013-10-23 12:24:00,
2013-10-23 06:29:00,38.3,36.7,30.02,North,360,1.3,4.6,94,0.00,OVC,,0.01,WeatherDisplay:10.37,2013-10-23 12:29:00,
2013-10-23 06:34:00,38.1,36.5,30.02,ENE,68,3.4,6.3,94,0.00,OVC,,0.01,WeatherDisplay:10.37,2013-10-23 12:34:00,
2013-10-23 06:39:00,38.1,36.8,30.02,NNW,338,3.3,4.6,95,0.00,OVC,,0.01,WeatherDisplay:10.37,2013-10-23 12:39:00,
2013-10-23 06:44:00,38.1,36.8,30.02,ENE,68,0.0,0.0,95,0.00,OVC,,0.01,WeatherDisplay:10.37,2013-10-23 12:44:00,
2013-10-23 06:49:00,38.1,36.8,30.02,ESE,112,2.4,3.5,95,0.00,OVC,,0.01,WeatherDisplay:10.37,2013-10-23 12:49:00,
2013-10-23 06:54:00,38.1,36.8,30.02,ENE,68,3.3,5.8,95,0.00,OVC,,0.01,WeatherDisplay:10.37,2013-10-23 12:54:00,
2013-10-23 06:59:00,38.1,36.8,30.02,North,360,2.4,4.6,95,0.00,OVC,,0.01,WeatherDisplay:10.37,2013-10-23 12:59:00,
2013-10-23 07:04:00,38.1,36.8,30.03,NNE,22,3.8,4.6,95,0.00,OVC,,0.01,WeatherDisplay:10.37,2013-10-23 13:04:00,
2013-10-23 07:09:00,38.1,36.8,30.03,North,360,2.1,2.3,95,0.00,OVC,,0.01,WeatherDisplay:10.37,2013-10-23 13:09:00,
2013-10-23 07:14:00,38.1,36.8,30.03,NE,45,3.7,5.8,95,0.00,OVC,,0.01,WeatherDisplay:10.37,2013-10-23 13:14:00,
2013-10-23 07:19:00,38.3,37.0,30.03,NE,45,2.1,2.3,95,0.00,OVC,,0.01,WeatherDisplay:10.37,2013-10-23 13:19:00,
2013-10-23 07:24:00,38.3,37.3,30.03,NE,45,3.3,6.9,96,0.00,OVC,,0.01,WeatherDisplay:10.37,2013-10-23 13:24:00,
2013-10-23 07:29:00,38.3,37.3,30.03,NE,45,4.8,6.9,96,0.00,OVC,,0.01,WeatherDisplay:10.37,2013-10-23 13:29:00,
2013-10-23 07:35:00,38.3,37.3,30.03,NNE,22,3.5,4.6,96,0.00,OVC,,0.01,WeatherDisplay:10.37,2013-10-23 13:35:00,
2013-10-23 07:40:00,38.3,37.3,30.04,NW,315,3.4,5.8,96,0.00,OVC,,0.01,WeatherDisplay:10.37,2013-10-23 13:40:00,
2013-10-23 07:45:00,38.3,37.0,30.04,West,270,2.9,4.6,95,0.00,OVC,,0.01,WeatherDisplay:10.37,2013-10-23 13:45:00,
2013-10-23 07:50:00,38.3,36.7,30.04,NNE,22,4.1,6.8,94,0.00,OVC,,0.01,WeatherDisplay:10.37,2013-10-23 13:50:00,
2013-10-23 07:55:00,38.3,36.7,30.04,WNW,292,2.8,4.6,94,0.00,OVC,,0.01,WeatherDisplay:10.37,2013-10-23 13:55:00,
2013-10-23 08:00:00,38.3,36.7,30.04,WNW,292,2.2,2.3,94,0.00,OVC,,0.01,WeatherDisplay:10.37,2013-10-23 14:00:00,
2013-10-23 08:05:00,38.3,36.5,30.05,NW,315,5.6,6.3,93,0.00,OVC,,0.01,WeatherDisplay:10.37,2013-10-23 14:05:00,
2013-10-23 08:10:00,37.9,36.1,30.05,NNW,338,4.6,6.9,93,0.00,OVC,,0.01,WeatherDisplay:10.37,2013-10-23 14:10:00,
2013-10-23 08:15:00,37.8,36.0,30.05,North,360,5.4,6.9,93,0.00,OVC,,0.01,WeatherDisplay:10.37,2013-10-23 14:15:00,
2013-10-23 08:20:00,37.8,35.7,30.06,NNE,22,3.1,5.8,92,0.00,OVC,,0.01,WeatherDisplay:10.37,2013-10-23 14:20:00,
2013-10-23 08:25:00,37.8,35.7,30.06,NNW,338,5.0,5.8,92,0.00,OVC,,0.01,WeatherDisplay:10.37,2013-10-23 14:25:00,
2013-10-23 08:30:00,37.9,35.8,30.06,NW,315,2.2,3.5,92,0.00,OVC,,0.01,WeatherDisplay:10.37,2013-10-23 14:30:00,
2013-10-23 08:35:00,38.1,36.0,30.06,ENE,68,2.9,4.6,92,0.00,OVC,,0.01,WeatherDisplay:10.37,2013-10-23 14:35:00,
2013-10-23 08:40:00,38.5,36.1,30.07,West,270,3.3,4.6,91,0.00,OVC,,0.01,WeatherDisplay:10.37,2013-10-23 14:40:00,
2013-10-23 08:45:00,38.5,36.1,30.07,NW,315,2.9,4.2,91,0.00,OVC,,0.01,WeatherDisplay:10.37,2013-10-23 14:45:00,
2013-10-23 08:50:00,38.5,35.8,30.07,WSW,248,3.5,5.8,90,0.00,OVC,,0.01,WeatherDisplay:10.37,2013-10-23 14:50:00,
2013-10-23 08:55:00,38.5,35.8,30.07,NNW,338,5.3,6.9,90,0.00,OVC,,0.01,WeatherDisplay:10.37,2013-10-23 14:55:00,
2013-10-23 09:00:00,38.7,36.0,30.07,WSW,248,2.9,3.5,90,0.00,OVC,,0.01,WeatherDisplay:10.37,2013-10-23 15:00:00,
2013-10-23 09:05:00,38.7,35.7,30.08,ENE,68,4.4,5.8,89,0.00,OVC,,0.01,WeatherDisplay:10.37,2013-10-23 15:05:00,
2013-10-23 09:10:00,38.5,35.3,30.08,NNE,22,1.8,4.6,88,0.00,OVC,,0.01,WeatherDisplay:10.37,2013-10-23 15:10:00,
2013-10-23 09:15:00,38.7,35.5,30.08,SW,225,2.9,5.8,88,0.00,OVC,,0.01,WeatherDisplay:10.37,2013-10-23 15:15:00,
2013-10-23 09:20:00,38.5,35.3,30.08,NNW,338,3.9,4.6,88,0.00,OVC,,0.01,WeatherDisplay:10.37,2013-10-23 15:20:00,
2013-10-23 09:25:00,38.5,35.3,30.08,West,270,5.5,5.8,88,0.00,OVC,,0.01,WeatherDisplay:10.37,2013-10-23 15:25:00,
2013-10-23 09:30:00,38.3,35.3,30.09,WNW,292,3.6,6.9,89,0.00,OVC,,0.01,WeatherDisplay:10.37,2013-10-23 15:30:00,
2013-10-23 09:35:00,37.9,34.7,30.09,WNW,292,5.9,6.9,88,0.00,OVC,,0.01,WeatherDisplay:10.37,2013-10-23 15:35:00,
2013-10-23 09:40:00,37.9,34.9,30.09,NE,45,3.3,5.8,89,0.00,OVC,,0.01,WeatherDisplay:10.37,2013-10-23 15:40:00,
2013-10-23 09:45:00,37.9,34.9,30.09,WNW,292,3.7,4.6,89,0.00,OVC,,0.01,WeatherDisplay:10.37,2013-10-23 15:45:00,
2013-10-23 09:50:00,37.9,34.9,30.09,West,270,3.5,6.3,89,0.00,OVC,,0.01,WeatherDisplay:10.37,2013-10-23 15:50:00,
2013-10-23 09:55:00,37.9,34.9,30.09,WNW,292,3.2,4.6,89,0.00,OVC,,0.01,WeatherDisplay:10.37,2013-10-23 15:55:00,
2013-10-23 10:00:00,37.9,34.9,30.09,North,360,1.8,2.3,89,0.00,OVC,,0.01,WeatherDisplay:10.37,2013-10-23 16:00:00,
2013-10-23 10:05:00,37.9,34.9,30.10,North,360,4.7,4.7,89,0.00,OVC,,0.01,WeatherDisplay:10.37,2013-10-23 16:05:00,
2013-10-23 10:10:00,37.8,34.8,30.10,ESE,112,4.4,5.8,89,0.00,OVC,,0.01,WeatherDisplay:10.37,2013-10-23 16:10:00,
2013-10-23 10:15:00,37.6,34.7,30.10,NE,45,4.7,6.9,89,0.00,OVC,,0.01,WeatherDisplay:10.37,2013-10-23 16:15:00,
2013-10-23 10:20:00,37.6,34.7,30.10,SW,225,3.4,4.6,89,0.00,OVC,,0.01,WeatherDisplay:10.37,2013-10-23 16:20:00,
2013-10-23 10:25:00,37.4,34.2,30.10,NE,45,6.6,8.1,88,0.00,OVC,,0.01,WeatherDisplay:10.37,2013-10-23 16:25:00,
2013-10-23 10:30:00,37.0,33.8,30.10,NNW,338,6.8,9.2,88,0.00,OVC,,0.01,WeatherDisplay:10.37,2013-10-23 16:30:00,
2013-10-23 10:35:00,36.9,34.0,30.10,WNW,292,3.9,5.3,89,0.00,OVC,,0.01,WeatherDisplay:10.37,2013-10-23 16:35:00,
2013-10-23 10:40:00,36.9,34.0,30.11,NE,45,4.7,6.9,89,0.00,OVC,,0.01,WeatherDisplay:10.37,2013-10-23 16:40:00,
2013-10-23 10:45:00,37.0,34.1,30.11,WNW,292,3.9,5.8,89,0.00,OVC,,0.01,WeatherDisplay:10.37,2013-10-23 16:45:00,
2013-10-23 10:50:00,37.8,34.8,30.11,East,90,2.8,3.7,89,0.00,OVC,,0.01,WeatherDisplay:10.37,2013-10-23 16:50:00,
2013-10-23 10:55:00,38.1,34.9,30.12,North,360,2.7,4.7,88,0.00,OVC,,0.01,WeatherDisplay:10.37,2013-10-23 16:55:00,
2013-10-23 11:00:00,37.9,33.5,30.12,NNW,338,3.7,4.7,84,0.00,OVC,,0.01,WeatherDisplay:10.37,2013-10-23 17:00:00,
2013-10-23 11:05:00,37.9,33.5,30.11,NNE,22,5.8,9.2,84,0.00,OVC,,0.01,WeatherDisplay:10.37,2013-10-23 17:05:00,
2013-10-23 11:10:00,37.9,33.5,30.11,NNE,22,3.8,4.6,84,0.00,OVC,,0.01,WeatherDisplay:10.37,2013-10-23 17:10:00,
2013-10-23 11:15:00,38.1,33.7,30.12,NW,315,4.1,5.8,84,0.00,OVC,,0.01,WeatherDisplay:10.37,2013-10-23 17:15:00,
2013-10-23 11:20:00,38.1,34.0,30.12,West,270,3.0,4.6,85,0.00,OVC,,0.01,WeatherDisplay:10.37,2013-10-23 17:20:00,
2013-10-23 11:25:00,37.9,33.5,30.12,SW,225,4.5,6.3,84,0.00,OVC,,0.01,WeatherDisplay:10.37,2013-10-23 17:25:00,
2013-10-23 11:30:00,37.8,33.4,30.13,East,90,2.6,4.6,84,0.00,OVC,,0.01,WeatherDisplay:10.37,2013-10-23 17:30:00,
2013-10-23 11:35:00,37.9,33.5,30.13,WSW,248,3.0,3.5,84,0.00,OVC,,0.01,WeatherDisplay:10.37,2013-10-23 17:35:00,
2013-10-23 11:40:00,37.8,33.4,30.13,WNW,292,5.4,8.1,84,0.00,OVC,,0.01,WeatherDisplay:10.37,2013-10-23 17:40:00,
2013-10-23 11:45:00,37.6,33.2,30.13,North,360,6.6,9.2,84,0.00,OVC,,0.01,WeatherDisplay:10.37,2013-10-23 17:45:00,
2013-10-23 11:50:00,37.4,33.0,30.13,West,270,5.3,5.8,84,0.00,OVC,,0.01,WeatherDisplay:10.37,2013-10-23 17:50:00,
2013-10-23 11:55:00,37.8,33.4,30.13,NNE,22,4.8,6.9,84,0.00,OVC,,0.01,WeatherDisplay:10.37,2013-10-23 17:55:00,
2013-10-23 12:00:00,37.8,33.4,30.13,West,270,3.4,8.1,84,0.00,OVC,,0.01,WeatherDisplay:10.37,2013-10-23 18:00:00,
2013-10-23 12:05:00,37.6,33.2,30.13,NNE,22,3.0,3.5,84,0.00,OVC,,0.01,WeatherDisplay:10.37,2013-10-23 18:05:00,
2013-10-23 12:10:00,37.4,33.3,30.13,NW,315,2.4,3.5,85,0.00,OVC,,0.01,WeatherDisplay:10.37,2013-10-23 18:10:00,
2013-10-23 12:15:00,37.6,33.2,30.14,WSW,248,3.5,5.8,84,0.00,OVC,,0.01,WeatherDisplay:10.37,2013-10-23 18:15:00,
2013-10-23 12:20:00,36.9,32.5,30.14,North,360,6.9,8.3,84,0.00,OVC,,0.01,WeatherDisplay:10.37,2013-10-23 18:20:00,
2013-10-23 12:25:00,36.7,32.3,30.14,NNW,338,6.8,8.1,84,0.00,OVC,,0.01,WeatherDisplay:10.37,2013-10-23 18:25:00,
2013-10-23 12:30:00,36.5,32.4,30.14,NW,315,4.6,5.8,85,0.00,OVC,,0.01,WeatherDisplay:10.37,2013-10-23 18:30:00,
2013-10-23 12:35:00,36.3,32.2,30.14,WNW,292,7.4,10.4,85,0.00,OVC,,0.01,WeatherDisplay:10.37,2013-10-23 18:35:00,
2013-10-23 12:40:00,36.3,32.5,30.14,WNW,292,3.3,5.8,86,0.00,OVC,,0.01,WeatherDisplay:10.37,2013-10-23 18:40:00,
2013-10-23 12:45:00,35.8,32.0,30.14,NE,45,5.1,9.2,86,0.00,OVC,,0.01,WeatherDisplay:10.37,2013-10-23 18:45:00,
2013-10-23 12:50:00,35.8,32.0,30.14,South,180,2.8,4.6,86,0.00,OVC,,0.01,WeatherDisplay:10.37,2013-10-23 18:50:00,
2013-10-23 12:55:00,36.1,32.0,30.14,NE,45,3.0,4.6,85,0.00,OVC,,0.01,WeatherDisplay:10.37,2013-10-23 18:55:00,
2013-10-23 13:00:00,36.0,32.2,30.14,NNE,22,3.3,6.8,86,0.00,OVC,,0.01,WeatherDisplay:10.37,2013-10-23 19:00:00,
2013-10-23 13:05:00,35.8,32.0,30.14,NNE,22,5.1,5.8,86,0.00,OVC,,0.01,WeatherDisplay:10.37,2013-10-23 19:05:00,
2013-10-23 13:10:00,35.8,32.0,30.14,ENE,68,4.5,5.8,86,0.00,OVC,,0.01,WeatherDisplay:10.37,2013-10-23 19:10:00,
2013-10-23 13:15:00,35.8,32.0,30.14,NE,45,4.4,6.9,86,0.00,OVC,,0.01,WeatherDisplay:10.37,2013-10-23 19:15:00,
2013-10-23 13:20:00,35.6,31.8,30.14,North,360,5.0,6.9,86,0.00,OVC,,0.01,WeatherDisplay:10.37,2013-10-23 19:20:00,
2013-10-23 13:25:00,35.8,32.0,30.14,West,270,4.4,4.6,86,0.00,OVC,,0.01,WeatherDisplay:10.37,2013-10-23 19:25:00,
2013-10-23 13:30:00,35.8,32.0,30.14,North,360,3.7,5.8,86,0.00,OVC,,0.01,WeatherDisplay:10.37,2013-10-23 19:30:00,
2013-10-23 13:36:00,36.1,32.0,30.14,NNE,22,4.6,5.8,85,0.00,OVC,,0.01,WeatherDisplay:10.37,2013-10-23 19:36:00,
2013-10-23 13:41:00,36.3,31.9,30.14,West,270,5.9,6.9,84,0.00,OVC,,0.01,WeatherDisplay:10.37,2013-10-23 19:41:00,
2013-10-23 13:46:00,36.3,31.3,30.14,NE,45,4.8,5.3,82,0.00,OVC,,0.01,WeatherDisplay:10.37,2013-10-23 19:46:00,
2013-10-23 13:51:00,36.0,29.5,30.14,NNE,22,6.3,8.1,77,0.00,OVC,,0.01,WeatherDisplay:10.37,2013-10-23 19:51:00,
2013-10-23 13:56:00,36.5,30.0,30.14,North,360,4.3,5.8,77,0.00,OVC,,0.01,WeatherDisplay:10.37,2013-10-23 19:56:00,
2013-10-23 14:01:00,37.8,30.9,30.14,NE,45,4.4,7.3,76,0.00,OVC,,0.01,WeatherDisplay:10.37,2013-10-23 20:01:00,
2013-10-23 14:06:00,37.9,30.7,30.14,NNE,22,2.7,8.1,75,0.00,OVC,,0.01,WeatherDisplay:10.37,2013-10-23 20:06:00,
2013-10-23 14:11:00,37.4,30.2,30.14,SSW,202,3.7,5.8,75,0.00,OVC,,0.01,WeatherDisplay:10.37,2013-10-23 20:11:00,
2013-10-23 14:16:00,37.4,30.2,30.15,NW,315,6.7,6.7,75,0.00,OVC,,0.01,WeatherDisplay:10.37,2013-10-23 20:16:00,
2013-10-23 14:21:00,37.9,30.7,30.15,NW,315,3.1,3.7,75,0.00,OVC,,0.01,WeatherDisplay:10.37,2013-10-23 20:21:00,
2013-10-23 14:26:00,37.9,30.7,30.15,NE,45,3.2,4.6,75,0.00,OVC,,0.01,WeatherDisplay:10.37,2013-10-23 20:26:00,
2013-10-23 14:31:00,37.9,30.7,30.15,NNW,338,3.9,5.8,75,0.00,OVC,,0.01,WeatherDisplay:10.37,2013-10-23 20:31:00,
2013-10-23 14:36:00,37.2,30.3,30.15,NNW,338,4.0,5.8,76,0.00,OVC,,0.01,WeatherDisplay:10.37,2013-10-23 20:36:00,
2013-10-23 14:41:00,37.6,30.1,30.15,NW,315,6.2,6.2,74,0.00,OVC,,0.01,WeatherDisplay:10.37,2013-10-23 20:41:00,
2013-10-23 14:46:00,37.2,29.7,30.15,WNW,292,4.8,5.8,74,0.00,OVC,,0.01,WeatherDisplay:10.37,2013-10-23 20:46:00,
2013-10-23 14:51:00,37.4,29.9,30.15,SSW,202,3.8,5.8,74,0.00,OVC,,0.01,WeatherDisplay:10.37,2013-10-23 20:51:00,
2013-10-23 14:56:00,37.4,30.2,30.15,North,360,4.6,4.6,75,0.00,OVC,,0.01,WeatherDisplay:10.37,2013-10-23 20:56:00,
2013-10-23 15:01:00,37.0,29.5,30.15,ESE,112,3.7,6.9,74,0.00,OVC,,0.01,WeatherDisplay:10.37,2013-10-23 21:01:00,
2013-10-23 15:06:00,37.2,29.7,30.15,North,360,4.3,5.8,74,0.00,OVC,,0.01,WeatherDisplay:10.37,2013-10-23 21:06:00,
2013-10-23 15:11:00,37.2,29.7,30.15,NNE,22,4.1,5.8,74,0.00,OVC,,0.01,WeatherDisplay:10.37,2013-10-23 21:11:00,
2013-10-23 15:16:00,37.4,29.9,30.15,NNW,338,5.7,8.3,74,0.00,OVC,,0.01,WeatherDisplay:10.37,2013-10-23 21:16:00,
2013-10-23 15:21:00,37.4,29.9,30.15,NNW,338,3.4,5.8,74,0.00,OVC,,0.01,WeatherDisplay:10.37,2013-10-23 21:21:00,
2013-10-23 15:26:00,37.6,30.1,30.15,NNE,22,3.5,4.6,74,0.00,OVC,,0.01,WeatherDisplay:10.37,2013-10-23 21:26:00,
2013-10-23 15:31:00,37.8,30.3,30.16,West,270,3.9,9.2,74,0.00,OVC,,0.01,WeatherDisplay:10.37,2013-10-23 21:31:00,
2013-10-23 15:36:00,37.4,29.9,30.16,NW,315,5.0,5.0,74,0.00,OVC,,0.01,WeatherDisplay:10.37,2013-10-23 21:36:00,
2013-10-23 15:41:00,37.4,30.2,30.16,SSE,158,2.9,3.5,75,0.00,OVC,,0.01,WeatherDisplay:10.37,2013-10-23 21:41:00,
2013-10-23 15:46:00,37.8,30.9,30.16,West,270,3.2,4.7,76,0.00,OVC,,0.01,WeatherDisplay:10.37,2013-10-23 21:46:00,
2013-10-23 15:51:00,37.4,30.2,30.16,NNW,338,4.1,4.6,75,0.00,OVC,,0.01,WeatherDisplay:10.37,2013-10-23 21:51:00,
2013-10-23 15:56:00,37.4,29.5,30.16,North,360,4.5,6.9,73,0.00,OVC,,0.01,WeatherDisplay:10.37,2013-10-23 21:56:00,
2013-10-23 16:01:00,37.4,29.5,30.16,East,90,6.6,9.2,73,0.00,OVC,,0.01,WeatherDisplay:10.37,2013-10-23 22:01:00,
2013-10-23 16:06:00,37.4,29.5,30.16,ENE,68,4.1,4.6,73,0.00,OVC,,0.01,WeatherDisplay:10.37,2013-10-23 22:06:00,
2013-10-23 16:11:00,37.4,29.5,30.16,NNE,22,5.2,8.1,73,0.00,OVC,,0.01,WeatherDisplay:10.37,2013-10-23 22:11:00,
2013-10-23 16:16:00,37.6,29.7,30.16,NNE,22,3.4,5.8,73,0.00,OVC,,0.01,WeatherDisplay:10.37,2013-10-23 22:16:00,
2013-10-23 16:21:00,37.6,29.7,30.16,North,360,4.1,8.8,73,0.00,OVC,,0.01,WeatherDisplay:10.37,2013-10-23 22:21:00,
2013-10-23 16:26:00,37.4,29.9,30.16,NE,45,5.8,5.8,74,0.00,OVC,,0.01,WeatherDisplay:10.37,2013-10-23 22:26:00,
2013-10-23 16:31:00,37.4,29.9,30.16,NE,45,5.8,5.8,74,0.00,OVC,,0.01,WeatherDisplay:10.37,2013-10-23 22:31:00,
2013-10-23 16:36:00,37.4,30.2,30.16,NNE,22,3.7,5.8,75,0.00,OVC,,0.01,WeatherDisplay:10.37,2013-10-23 22:36:00,
2013-10-23 16:41:00,37.2,30.0,30.17,SW,225,4.2,4.7,75,0.00,OVC,,0.01,WeatherDisplay:10.37,2013-10-23 22:41:00,
2013-10-23 16:46:00,37.2,30.0,30.17,North,360,3.0,4.6,75,0.00,OVC,,0.01,WeatherDisplay:10.37,2013-10-23 22:46:00,
2013-10-23 16:51:00,37.2,30.0,30.17,WNW,292,3.7,6.9,75,0.00,OVC,,0.01,WeatherDisplay:10.37,2013-10-23 22:51:00,
2013-10-23 16:56:00,37.0,29.8,30.17,WNW,292,3.9,4.7,75,0.00,OVC,,0.01,WeatherDisplay:10.37,2013-10-23 22:56:00,
2013-10-23 17:01:00,37.0,29.8,30.17,NW,315,4.1,5.8,75,0.00,OVC,,0.01,WeatherDisplay:10.37,2013-10-23 23:01:00,
2013-10-23 17:06:00,37.0,29.8,30.17,ENE,68,4.1,5.8,75,0.00,OVC,,0.01,WeatherDisplay:10.37,2013-10-23 23:06:00,
2013-10-23 17:11:00,37.0,29.8,30.17,NW,315,4.7,6.3,75,0.00,OVC,,0.01,WeatherDisplay:10.37,2013-10-23 23:11:00,
2013-10-23 17:16:00,37.0,30.1,30.17,NW,315,2.5,3.5,76,0.00,OVC,,0.01,WeatherDisplay:10.37,2013-10-23 23:16:00,
2013-10-23 17:21:00,37.0,29.8,30.17,NE,45,2.8,3.5,75,0.00,OVC,,0.01,WeatherDisplay:10.37,2013-10-23 23:21:00,
2013-10-23 17:26:00,37.0,29.8,30.17,NW,315,3.3,5.8,75,0.00,OVC,,0.01,WeatherDisplay:10.37,2013-10-23 23:26:00,
2013-10-23 17:31:00,37.0,29.5,30.17,East,90,2.6,3.5,74,0.00,OVC,,0.01,WeatherDisplay:10.37,2013-10-23 23:31:00,
2013-10-23 17:36:00,37.0,30.1,30.17,NNW,338,2.4,2.7,76,0.00,OVC,,0.01,WeatherDisplay:10.37,2013-10-23 23:36:00,
2013-10-23 17:41:00,37.2,31.0,30.17,West,270,2.4,2.7,78,0.00,OVC,,0.01,WeatherDisplay:10.37,2013-10-23 23:41:00,
2013-10-23 17:46:00,37.0,30.5,30.17,SW,225,4.2,6.9,77,0.00,OVC,,0.01,WeatherDisplay:10.37,2013-10-23 23:46:00,
2013-10-23 17:51:00,36.9,30.4,30.17,West,270,3.0,5.3,77,0.00,OVC,,0.01,WeatherDisplay:10.37,2013-10-23 23:51:00,
2013-10-23 17:56:00,36.9,29.4,30.17,NW,315,4.1,5.3,74,0.00,OVC,,0.01,WeatherDisplay:10.37,2013-10-23 23:56:00,
2013-10-23 18:01:00,36.7,29.2,30.17,NNW,338,3.2,3.5,74,0.00,OVC,,0.01,WeatherDisplay:10.37,2013-10-24 00:01:00,
2013-10-23 18:06:00,36.3,29.1,30.17,SW,225,1.2,1.7,75,0.00,OVC,,0.01,WeatherDisplay:10.37,2013-10-24 00:06:00,
2013-10-23 18:11:00,36.3,29.1,30.17,NE,45,2.5,3.5,75,0.00,OVC,,0.01,WeatherDisplay:10.37,2013-10-24 00:11:00,
2013-10-23 18:16:00,36.1,29.3,30.18,WNW,292,2.1,2.7,76,0.00,OVC,,0.01,WeatherDisplay:10.37,2013-10-24 00:16:00,
2013-10-23 18:21:00,36.0,29.2,30.18,NW,315,3.0,3.0,76,0.00,OVC,,0.01,WeatherDisplay:10.37,2013-10-24 00:21:00,
2013-10-23 18:26:00,36.0,29.2,30.18,NW,315,2.2,2.3,76,0.00,OVC,,0.01,WeatherDisplay:10.37,2013-10-24 00:26:00,
2013-10-23 18:31:00,35.4,29.2,30.18,WSW,248,2.7,2.7,78,0.00,OVC,,0.01,WeatherDisplay:10.37,2013-10-24 00:31:00,
2013-10-23 18:36:00,35.2,28.4,30.18,WSW,248,2.3,3.5,76,0.00,OVC,,0.01,WeatherDisplay:10.37,2013-10-24 00:36:00,
2013-10-23 18:41:00,35.2,28.4,30.18,SW,225,2.4,2.7,76,0.00,OVC,,0.01,WeatherDisplay:10.37,2013-10-24 00:41:00,
2013-10-23 18:46:00,35.4,28.9,30.18,SSW,202,1.7,2.2,77,0.00,OVC,,0.01,WeatherDisplay:10.37,2013-10-24 00:46:00,
2013-10-23 18:52:00,35.1,28.6,30.19,WNW,292,1.8,2.3,77,0.00,OVC,,0.01,WeatherDisplay:10.37,2013-10-24 00:52:00,
2013-10-23 18:57:00,35.1,28.9,30.19,WSW,248,0.8,1.7,78,0.00,OVC,,0.01,WeatherDisplay:10.37,2013-10-24 00:57:00,
2013-10-23 19:02:00,34.3,28.5,30.19,SW,225,0.0,0.0,79,0.00,BKN,,0.01,WeatherDisplay:10.37,2013-10-24 01:02:00,
2013-10-23 19:07:00,33.8,28.6,30.19,SW,225,0.0,0.0,81,0.00,BKN,,0.01,WeatherDisplay:10.37,2013-10-24 01:07:00,
2013-10-23 19:12:00,33.4,28.5,30.19,ENE,68,0.0,0.0,82,0.00,BKN,,0.01,WeatherDisplay:10.37,2013-10-24 01:12:00,
2013-10-23 19:17:00,32.9,28.3,30.18,SSW,202,0.0,0.0,83,0.00,BKN,,0.01,WeatherDisplay:10.37,2013-10-24 01:17:00,
2013-10-23 19:22:00,32.5,28.2,30.18,SW,225,0.0,0.0,84,0.00,BKN,,0.01,WeatherDisplay:10.37,2013-10-24 01:22:00,
2013-10-23 19:27:00,32.2,27.9,30.18,SW,225,0.0,0.0,84,0.00,BKN,,0.01,WeatherDisplay:10.37,2013-10-24 01:27:00,
2013-10-23 19:32:00,32.0,28.3,30.19,SW,225,0.0,0.0,86,0.00,BKN,,0.01,WeatherDisplay:10.37,2013-10-24 01:32:00,
2013-10-23 19:37:00,31.5,27.8,30.19,SW,225,0.0,0.0,86,0.00,BKN,,0.01,WeatherDisplay:10.37,2013-10-24 01:37:00,
2013-10-23 19:42:00,31.5,28.1,30.19,WNW,292,0.0,0.0,87,0.00,SCT,,0.01,WeatherDisplay:10.37,2013-10-24 01:42:00,
2013-10-23 19:47:00,31.1,28.0,30.19,West,270,0.0,0.0,88,0.00,SCT,,0.01,WeatherDisplay:10.37,2013-10-24 01:47:00,
2013-10-23 19:52:00,30.7,27.6,30.19,NW,315,0.0,0.0,88,0.00,SCT,,0.01,WeatherDisplay:10.37,2013-10-24 01:52:00,
2013-10-23 19:57:00,30.6,27.5,30.19,SW,225,0.0,0.0,88,0.00,SCT,,0.01,WeatherDisplay:10.37,2013-10-24 01:57:00,
2013-10-23 20:02:00,30.4,27.3,30.19,West,270,0.0,0.0,88,0.00,CLR,,0.01,WeatherDisplay:10.37,2013-10-24 02:02:00,
2013-10-23 20:07:00,30.4,27.3,30.19,SW,225,0.0,0.0,88,0.00,CLR,,0.01,WeatherDisplay:10.37,2013-10-24 02:07:00,
2013-10-23 20:12:00,30.4,27.3,30.19,SW,225,1.1,1.1,88,0.00,CLR,,0.01,WeatherDisplay:10.37,2013-10-24 02:12:00,
2013-10-23 20:17:00,30.0,27.2,30.20,West,270,0.6,1.7,89,0.00,CLR,,0.01,WeatherDisplay:10.37,2013-10-24 02:17:00,
2013-10-23 20:22:00,29.8,27.0,30.20,WSW,248,0.0,0.0,89,0.00,CLR,,0.01,WeatherDisplay:10.37,2013-10-24 02:22:00,
2013-10-23 20:27:00,29.8,27.0,30.20,WSW,248,0.0,0.0,89,0.00,CLR,,0.01,WeatherDisplay:10.37,2013-10-24 02:27:00,
2013-10-23 20:32:00,29.5,26.7,30.20,WSW,248,0.0,0.0,89,0.00,CLR,,0.01,WeatherDisplay:10.37,2013-10-24 02:32:00,
2013-10-23 20:37:00,29.5,26.7,30.20,WSW,248,0.0,0.0,89,0.00,CLR,,0.01,WeatherDisplay:10.37,2013-10-24 02:37:00,
2013-10-23 20:42:00,29.5,26.9,30.19,SW,225,0.9,1.1,90,0.00,CLR,,0.01,WeatherDisplay:10.37,2013-10-24 02:42:00,
2013-10-23 20:47:00,29.5,26.9,30.19,SW,225,1.6,2.2,90,0.00,CLR,,0.01,WeatherDisplay:10.37,2013-10-24 02:47:00,
2013-10-23 20:52:00,29.3,26.7,30.20,SW,225,2.2,2.3,90,0.00,CLR,,0.01,WeatherDisplay:10.37,2013-10-24 02:52:00,
2013-10-23 20:57:00,29.3,26.7,30.20,WSW,248,1.5,1.7,90,0.00,CLR,,0.01,WeatherDisplay:10.37,2013-10-24 02:57:00,
2013-10-23 21:02:00,29.1,26.5,30.20,SW,225,1.6,1.7,90,0.00,CLR,,0.01,WeatherDisplay:10.37,2013-10-24 03:02:00,
2013-10-23 21:07:00,28.9,26.6,30.20,WSW,248,0.0,0.0,91,0.00,CLR,,0.01,WeatherDisplay:10.37,2013-10-24 03:07:00,
2013-10-23 21:12:00,28.9,26.6,30.20,SW,225,0.0,0.0,91,0.00,CLR,,0.01,WeatherDisplay:10.37,2013-10-24 03:12:00,
2013-10-23 21:17:00,28.9,26.9,30.20,SW,225,0.0,0.0,92,0.00,CLR,,0.01,WeatherDisplay:10.37,2013-10-24 03:17:00,
2013-10-23 21:22:00,28.8,26.8,30.20,SW,225,0.0,0.0,92,0.00,CLR,,0.01,WeatherDisplay:10.37,2013-10-24 03:22:00,
2013-10-23 21:27:00,28.6,26.8,30.21,SW,225,0.0,0.0,93,0.00,CLR,,0.01,WeatherDisplay:10.37,2013-10-24 03:27:00,
2013-10-23 21:32:00,28.2,26.4,30.21,SW,225,0.0,0.0,93,0.00,CLR,,0.01,WeatherDisplay:10.37,2013-10-24 03:32:00,
2013-10-23 21:37:00,28.0,26.2,30.21,SW,225,1.7,2.3,93,0.00,CLR,,0.01,WeatherDisplay:10.37,2013-10-24 03:37:00,
2013-10-23 21:42:00,27.9,26.1,30.21,SW,225,0.0,0.0,93,0.00,CLR,,0.01,WeatherDisplay:10.37,2013-10-24 03:42:00,
2013-10-23 21:47:00,27.9,26.4,30.21,SW,225,1.7,1.7,94,0.00,CLR,,0.01,WeatherDisplay:10.37,2013-10-24 03:47:00,
2013-10-23 21:52:00,27.7,26.2,30.21,SW,225,2.2,2.3,94,0.00,CLR,,0.01,WeatherDisplay:10.37,2013-10-24 03:52:00,
2013-10-23 21:57:00,27.5,26.0,30.21,SW,225,0.1,1.1,94,0.00,CLR,,0.01,WeatherDisplay:10.37,2013-10-24 03:57:00,
2013-10-23 22:01:00,27.5,26.0,30.21,SSW,202,1.7,1.7,94,0.00,CLR,,0.01,WeatherDisplay:10.37,2013-10-24 04:01:00,
2013-10-23 22:06:00,27.5,26.0,30.21,SSE,158,0.0,0.0,94,0.00,CLR,,0.01,WeatherDisplay:10.37,2013-10-24 04:06:00,
2013-10-23 22:11:00,27.1,25.6,30.21,SSE,158,0.6,1.1,94,0.00,CLR,,0.01,WeatherDisplay:10.37,2013-10-24 04:11:00,
2013-10-23 22:16:00,27.0,25.5,30.21,South,180,1.1,1.1,94,0.00,CLR,,0.01,WeatherDisplay:10.37,2013-10-24 04:16:00,
2013-10-23 22:21:00,27.0,25.5,30.21,East,90,0.0,0.0,94,0.00,CLR,,0.01,WeatherDisplay:10.37,2013-10-24 04:21:00,
2013-10-23 22:26:00,27.0,25.5,30.21,SW,225,0.0,0.0,94,0.00,CLR,,0.01,WeatherDisplay:10.37,2013-10-24 04:26:00,
2013-10-23 22:31:00,26.6,25.1,30.21,SW,225,1.8,2.3,94,0.00,CLR,,0.01,WeatherDisplay:10.37,2013-10-24 04:31:00,
2013-10-23 22:36:00,26.4,24.9,30.21,SW,225,0.0,0.0,94,0.00,CLR,,0.01,WeatherDisplay:10.37,2013-10-24 04:36:00,
2013-10-23 22:41:00,26.2,24.7,30.21,SW,225,1.7,2.3,94,0.00,CLR,,0.01,WeatherDisplay:10.37,2013-10-24 04:41:00,
2013-10-23 22:46:00,26.2,24.7,30.21,SW,225,0.0,0.0,94,0.00,CLR,,0.01,WeatherDisplay:10.37,2013-10-24 04:46:00,
2013-10-23 22:51:00,26.2,24.7,30.21,SW,225,0.0,0.0,94,0.00,CLR,,0.01,WeatherDisplay:10.37,2013-10-24 04:51:00,
2013-10-23 22:56:00,26.1,24.6,30.21,WSW,248,1.2,1.2,94,0.00,CLR,,0.01,WeatherDisplay:10.37,2013-10-24 04:56:00,
2013-10-23 23:01:00,26.1,24.6,30.21,SW,225,1.5,1.7,94,0.00,CLR,,0.01,WeatherDisplay:10.37,2013-10-24 05:01:00,
2013-10-23 23:06:00,26.1,24.6,30.22,South,180,1.8,1.8,94,0.00,CLR,,0.01,WeatherDisplay:10.37,2013-10-24 05:06:00,
2013-10-23 23:11:00,25.9,24.7,30.22,SW,225,0.0,0.0,95,0.00,CLR,,0.01,WeatherDisplay:10.37,2013-10-24 05:11:00,
2013-10-23 23:16:00,25.9,24.7,30.22,South,180,0.0,1.1,95,0.00,CLR,,0.01,WeatherDisplay:10.37,2013-10-24 05:16:00,
2013-10-23 23:21:00,25.7,24.5,30.22,South,180,1.8,2.3,95,0.00,CLR,,0.01,WeatherDisplay:10.37,2013-10-24 05:21:00,
2013-10-23 23:26:00,25.7,24.5,30.22,SSW,202,0.0,0.0,95,0.00,CLR,,0.01,WeatherDisplay:10.37,2013-10-24 05:26:00,
2013-10-23 23:32:00,25.7,24.5,30.22,SW,225,2.2,2.3,95,0.00,CLR,,0.01,WeatherDisplay:10.37,2013-10-24 05:32:00,
2013-10-23 23:36:00,25.7,24.2,30.22,SW,225,2.5,2.7,94,0.00,CLR,,0.01,WeatherDisplay:10.37,2013-10-24 05:36:00,
2013-10-23 23:42:00,25.5,24.0,30.22,WSW,248,0.3,1.1,94,0.00,CLR,,0.01,WeatherDisplay:10.37,2013-10-24 05:42:00,
2013-10-23 23:47:00,25.5,24.0,30.22,SW,225,1.6,1.7,94,0.00,CLR,,0.01,WeatherDisplay:10.37,2013-10-24 05:47:00,
2013-10-23 23:52:00,25.5,24.0,30.22,SW,225,1.5,2.3,94,0.00,CLR,,0.01,WeatherDisplay:10.37,2013-10-24 05:52:00,
2013-10-23 23:57:00,25.5,24.0,30.22,WSW,248,0.0,1.1,94,0.00,CLR,,0.01,WeatherDisplay:10.37,2013-10-24 05:57:00,